createdAt,value
2018-07-28T00:00:57.352Z,1002.69
2018-07-28T00:01:57.359Z,1002.67
2018-07-28T00:02:57.367Z,1002.69
2018-07-28T00:03:57.376Z,1002.66
2018-07-28T00:04:57.393Z,1002.67
2018-07-28T00:05:57.405Z,1002.63
2018-07-28T00:06:57.407Z,1002.60
2018-07-28T00:07:57.412Z,1002.60
2018-07-28T00:08:57.420Z,1002.59
2018-07-28T00:09:57.424Z,1002.59
2018-07-28T00:10:57.442Z,1002.57
2018-07-28T00:11:57.451Z,1002.56
2018-07-28T00:12:57.457Z,1002.54
2018-07-28T00:13:57.459Z,1002.56
2018-07-28T00:14:57.475Z,1002.52
2018-07-28T00:15:57.477Z,1002.53
2018-07-28T00:16:57.494Z,1002.47
2018-07-28T00:17:57.513Z,1002.51
2018-07-28T00:18:57.503Z,1002.57
2018-07-28T00:19:57.528Z,1002.53
2018-07-28T00:20:57.520Z,1002.54
2018-07-28T00:21:57.539Z,1002.54
2018-07-28T00:22:57.547Z,1002.52
2018-07-28T00:23:57.550Z,1002.55
2018-07-28T00:24:57.561Z,1002.53
2018-07-28T00:25:57.569Z,1002.53
2018-07-28T00:26:57.576Z,1002.51
2018-07-28T00:27:57.584Z,1002.50
2018-07-28T00:28:57.597Z,1002.54
2018-07-28T00:29:57.606Z,1002.53
2018-07-28T00:30:57.608Z,1002.51
2018-07-28T00:31:57.621Z,1002.49
2018-07-28T00:32:57.625Z,1002.54
2018-07-28T00:33:57.635Z,1002.55
2018-07-28T00:34:57.646Z,1002.51
2018-07-28T00:35:57.658Z,1002.51
2018-07-28T00:36:57.662Z,1002.49
2018-07-28T00:37:57.663Z,1002.50
2018-07-28T00:38:57.684Z,1002.52
2018-07-28T00:39:57.688Z,1002.54
2018-07-28T00:40:57.699Z,1002.47
2018-07-28T00:41:57.709Z,1002.46
2018-07-28T00:42:57.710Z,1002.48
2018-07-28T00:43:57.754Z,1002.41
2018-07-28T00:44:57.732Z,1002.42
2018-07-28T00:45:57.742Z,1002.44
2018-07-28T00:46:57.753Z,1002.38
2018-07-28T00:47:57.775Z,1002.44
2018-07-28T00:48:57.760Z,1002.42
2018-07-28T00:49:57.794Z,1002.39
2018-07-28T00:50:57.774Z,1002.36
2018-07-28T00:51:57.795Z,1002.36
2018-07-28T00:52:57.791Z,1002.34
2018-07-28T00:53:57.801Z,1002.36
2018-07-28T00:54:57.833Z,1002.29
2018-07-28T00:55:57.819Z,1002.28
2018-07-28T00:56:57.846Z,1002.29
2018-07-28T00:57:57.835Z,1002.25
2018-07-28T00:58:57.854Z,1002.27
2018-07-28T00:59:57.868Z,1002.27
2018-07-28T01:00:57.868Z,1002.25
2018-07-28T01:01:57.890Z,1002.25
2018-07-28T01:02:57.887Z,1002.21
2018-07-28T01:03:57.899Z,1002.21
2018-07-28T01:04:57.901Z,1002.22
2018-07-28T01:05:57.916Z,1002.13
2018-07-28T01:06:57.925Z,1002.15
2018-07-28T01:07:57.928Z,1002.15
2018-07-28T01:08:57.936Z,1002.15
2018-07-28T01:09:57.939Z,1002.16
2018-07-28T01:10:57.958Z,1002.14
2018-07-28T01:11:57.962Z,1002.12
2018-07-28T01:12:57.979Z,1002.14
2018-07-28T01:13:58.026Z,1002.15
2018-07-28T01:14:57.989Z,1002.13
2018-07-28T01:15:57.994Z,1002.14
2018-07-28T01:16:58.001Z,1002.12
2018-07-28T01:17:58.003Z,1002.08
2018-07-28T01:18:58.021Z,1002.04
2018-07-28T01:19:58.022Z,1002.04
2018-07-28T01:20:58.044Z,1002.05
2018-07-28T01:21:58.046Z,1001.99
2018-07-28T01:22:58.043Z,1002.00
2018-07-28T01:23:58.060Z,1001.98
2018-07-28T01:24:58.059Z,1001.97
2018-07-28T01:25:58.078Z,1001.94
2018-07-28T01:26:58.094Z,1001.97
2018-07-28T01:27:58.086Z,1001.95
2018-07-28T01:28:58.113Z,1001.96
2018-07-28T01:29:58.109Z,1001.91
2018-07-28T01:30:58.117Z,1001.90
2018-07-28T01:31:58.138Z,1001.90
2018-07-28T01:32:58.129Z,1001.86
2018-07-28T01:33:58.136Z,1001.87
2018-07-28T01:34:58.154Z,1001.89
2018-07-28T01:35:58.149Z,1001.87
2018-07-28T01:36:58.170Z,1001.85
2018-07-28T01:37:58.175Z,1001.86
2018-07-28T01:38:59.166Z,1001.79
2018-07-28T01:39:58.192Z,1001.85
2018-07-28T01:40:58.195Z,1001.84
2018-07-28T01:41:58.204Z,1001.78
2018-07-28T01:42:58.221Z,1001.79
2018-07-28T01:43:58.223Z,1001.75
2018-07-28T01:44:58.232Z,1001.75
2018-07-28T01:45:58.241Z,1001.75
2018-07-28T01:46:58.254Z,1001.70
2018-07-28T01:47:58.257Z,1001.75
2018-07-28T01:48:58.266Z,1001.70
2018-07-28T01:49:58.263Z,1001.66
2018-07-28T01:50:58.281Z,1001.66
2018-07-28T01:51:58.292Z,1001.59
2018-07-28T01:52:58.291Z,1001.60
2018-07-28T01:53:58.341Z,1001.60
2018-07-28T01:54:58.316Z,1001.56
2018-07-28T01:55:58.321Z,1001.53
2018-07-28T01:56:58.322Z,1001.53
2018-07-28T01:57:58.337Z,1001.51
2018-07-28T01:58:58.346Z,1001.46
2018-07-28T01:59:58.347Z,1001.46
2018-07-28T02:00:58.358Z,1001.40
2018-07-28T02:01:58.366Z,1001.42
2018-07-28T02:02:58.385Z,1001.39
2018-07-28T02:03:58.381Z,1001.39
2018-07-28T02:04:58.392Z,1001.41
2018-07-28T02:05:58.394Z,1001.39
2018-07-28T02:06:58.413Z,1001.37
2018-07-28T02:07:58.418Z,1001.37
2018-07-28T02:08:58.428Z,1001.39
2018-07-28T02:09:58.430Z,1001.34
2018-07-28T02:10:58.451Z,1001.31
2018-07-28T02:11:58.449Z,1001.30
2018-07-28T02:12:58.461Z,1001.27
2018-07-28T02:13:58.459Z,1001.24
2018-07-28T02:14:58.493Z,1001.18
2018-07-28T02:15:58.484Z,1001.19
2018-07-28T02:16:58.490Z,1001.17
2018-07-28T02:17:58.494Z,1001.15
2018-07-28T02:18:58.507Z,1001.12
2018-07-28T02:19:58.514Z,1001.09
2018-07-28T02:20:58.536Z,1001.08
2018-07-28T02:21:58.547Z,1001.07
2018-07-28T02:22:58.536Z,1001.05
2018-07-28T02:23:58.543Z,1001.05
2018-07-28T02:24:58.554Z,1001.00
2018-07-28T02:25:58.572Z,1001.00
2018-07-28T02:26:58.580Z,1000.98
2018-07-28T02:27:58.573Z,1000.98
2018-07-28T02:28:58.640Z,1000.95
2018-07-28T02:29:58.601Z,1000.96
2018-07-28T02:30:58.602Z,1000.93
2018-07-28T02:31:58.619Z,1000.93
2018-07-28T02:32:58.630Z,1000.94
2018-07-28T02:33:58.625Z,1000.92
2018-07-28T02:34:58.641Z,1000.92
2018-07-28T02:35:58.642Z,1000.90
2018-07-28T02:36:58.649Z,1000.90
2018-07-28T02:37:58.659Z,1000.89
2018-07-28T02:38:58.671Z,1000.88
2018-07-28T02:39:58.679Z,1000.86
2018-07-28T02:40:58.683Z,1000.86
2018-07-28T02:41:58.682Z,1000.82
2018-07-28T02:42:58.695Z,1000.81
2018-07-28T02:43:58.703Z,1000.84
2018-07-28T02:44:58.706Z,1000.84
2018-07-28T02:45:58.723Z,1000.83
2018-07-28T02:46:58.724Z,1000.82
2018-07-28T02:47:58.737Z,1000.81
2018-07-28T02:48:58.737Z,1000.80
2018-07-28T02:49:58.768Z,1000.72
2018-07-28T02:50:58.755Z,1000.73
2018-07-28T02:51:58.761Z,1000.70
2018-07-28T02:52:58.771Z,1000.67
2018-07-28T02:53:58.780Z,1000.67
2018-07-28T02:54:58.788Z,1000.61
2018-07-28T02:55:58.796Z,1000.59
2018-07-28T02:56:58.808Z,1000.58
2018-07-28T02:57:58.809Z,1000.56
2018-07-28T02:58:58.815Z,1000.55
2018-07-28T02:59:58.827Z,1000.54
2018-07-28T03:00:58.830Z,1000.52
2018-07-28T03:01:58.865Z,1000.52
2018-07-28T03:02:58.848Z,1000.53
2018-07-28T03:03:58.858Z,1000.50
2018-07-28T03:04:58.869Z,1000.54
2018-07-28T03:05:58.870Z,1000.46
2018-07-28T03:06:58.884Z,1000.46
2018-07-28T03:07:58.887Z,1000.46
2018-07-28T03:08:58.895Z,1000.47
2018-07-28T03:09:58.909Z,1000.44
2018-07-28T03:10:58.908Z,1000.46
2018-07-28T03:11:58.918Z,1000.41
2018-07-28T03:12:58.921Z,1000.45
2018-07-28T03:13:58.935Z,1000.46
2018-07-28T03:14:58.935Z,1000.46
2018-07-28T03:15:58.960Z,1000.46
2018-07-28T03:16:58.954Z,1000.42
2018-07-28T03:17:58.955Z,1000.43
2018-07-28T03:18:58.965Z,1000.42
2018-07-28T03:19:58.979Z,1000.41
2018-07-28T03:20:58.983Z,1000.41
2018-07-28T03:21:58.992Z,1000.40
2018-07-28T03:22:58.998Z,1000.42
2018-07-28T03:23:59.007Z,1000.43
2018-07-28T03:24:59.013Z,1000.44
2018-07-28T03:25:59.013Z,1000.45
2018-07-28T03:26:59.033Z,1000.43
2018-07-28T03:27:59.034Z,1000.44
2018-07-28T03:28:59.045Z,1000.41
2018-07-28T03:29:59.053Z,1000.45
2018-07-28T03:30:59.052Z,1000.46
2018-07-28T03:31:59.067Z,1000.47
2018-07-28T03:32:59.095Z,1000.48
2018-07-28T03:33:59.083Z,1000.42
2018-07-28T03:34:59.089Z,1000.38
2018-07-28T03:35:59.104Z,1000.35
2018-07-28T03:36:59.108Z,1000.37
2018-07-28T03:37:59.110Z,1000.40
2018-07-28T03:38:59.119Z,1000.45
2018-07-28T03:39:59.135Z,1000.51
2018-07-28T03:40:59.129Z,1000.49
2018-07-28T03:41:59.143Z,1000.51
2018-07-28T03:42:59.150Z,1000.43
2018-07-28T03:43:59.163Z,1000.41
2018-07-28T03:44:59.170Z,1000.41
2018-07-28T03:45:59.177Z,1000.39
2018-07-28T03:46:59.177Z,1000.40
2018-07-28T03:47:59.192Z,1000.39
2018-07-28T03:48:59.190Z,1000.36
2018-07-28T03:49:59.296Z,1000.40
2018-07-28T03:50:59.217Z,1000.43
2018-07-28T03:51:59.221Z,1000.40
2018-07-28T03:52:59.224Z,1000.38
2018-07-28T03:53:59.238Z,1000.36
2018-07-28T03:54:59.238Z,1000.39
2018-07-28T03:55:59.251Z,1000.37
2018-07-28T03:56:59.255Z,1000.36
2018-07-28T03:57:59.274Z,1000.34
2018-07-28T03:58:59.267Z,1000.33
2018-07-28T03:59:59.276Z,1000.34
2018-07-28T04:00:59.295Z,1000.28
2018-07-28T04:01:59.309Z,1000.28
2018-07-28T04:02:59.299Z,1000.25
2018-07-28T04:03:59.310Z,1000.23
2018-07-28T04:04:59.321Z,1000.22
2018-07-28T04:05:59.322Z,1000.19
2018-07-28T04:06:59.329Z,1000.20
2018-07-28T04:07:59.337Z,1000.19
2018-07-28T04:08:59.352Z,1000.21
2018-07-28T04:09:59.347Z,1000.18
2018-07-28T04:10:59.372Z,1000.14
2018-07-28T04:11:59.368Z,1000.16
2018-07-28T04:12:59.372Z,1000.12
2018-07-28T04:13:59.385Z,1000.10
2018-07-28T04:14:59.387Z,1000.10
2018-07-28T04:15:59.398Z,1000.13
2018-07-28T04:16:59.418Z,1000.10
2018-07-28T04:17:59.410Z,1000.15
2018-07-28T04:18:59.420Z,1000.14
2018-07-28T04:19:59.433Z,1000.21
2018-07-28T04:20:59.433Z,1000.26
2018-07-28T04:21:59.438Z,1000.29
2018-07-28T04:22:59.442Z,1000.42
2018-07-28T04:23:59.460Z,1000.57
2018-07-28T04:24:59.468Z,1000.67
2018-07-28T04:25:59.470Z,1000.70
2018-07-28T04:26:59.482Z,1000.65
2018-07-28T04:27:59.490Z,1000.58
2018-07-28T04:28:59.494Z,1000.54
2018-07-28T04:29:59.494Z,1000.54
2018-07-28T04:30:59.508Z,1000.52
2018-07-28T04:31:59.513Z,1000.53
2018-07-28T04:32:59.518Z,1000.51
2018-07-28T04:33:59.523Z,1000.50
2018-07-28T04:34:59.538Z,1000.49
2018-07-28T04:35:59.548Z,1000.53
2018-07-28T04:36:59.552Z,1000.67
2018-07-28T04:37:59.552Z,1000.74
2018-07-28T04:38:59.566Z,1000.71
2018-07-28T04:39:59.570Z,1000.60
2018-07-28T04:40:59.576Z,1000.62
2018-07-28T04:41:59.585Z,1000.77
2018-07-28T04:42:59.597Z,1000.80
2018-07-28T04:43:59.605Z,1000.82
2018-07-28T04:44:59.616Z,1000.74
2018-07-28T04:45:59.618Z,1000.53
2018-07-28T04:46:59.638Z,1000.44
2018-07-28T04:47:59.650Z,1000.41
2018-07-28T04:48:59.643Z,1000.52
2018-07-28T04:49:59.648Z,1000.74
2018-07-28T04:50:59.664Z,1000.89
2018-07-28T04:51:59.661Z,1000.95
2018-07-28T04:52:59.683Z,1000.79
2018-07-28T04:53:59.677Z,1000.61
2018-07-28T04:54:59.689Z,1000.52
2018-07-28T04:55:59.701Z,1000.54
2018-07-28T04:56:59.701Z,1000.57
2018-07-28T04:57:59.701Z,1000.76
2018-07-28T04:58:59.732Z,1000.91
2018-07-28T04:59:59.737Z,1000.96
2018-07-28T05:00:59.738Z,1000.81
2018-07-28T05:01:59.741Z,1000.59
2018-07-28T05:02:59.748Z,1000.64
2018-07-28T05:03:59.786Z,1000.71
2018-07-28T05:04:59.788Z,1000.79
2018-07-28T05:05:59.770Z,1000.79
2018-07-28T05:06:59.775Z,1000.67
2018-07-28T05:07:59.790Z,1000.63
2018-07-28T05:08:59.789Z,1000.57
2018-07-28T05:09:59.797Z,1000.56
2018-07-28T05:10:59.822Z,1000.65
2018-07-28T05:11:59.814Z,1000.59
2018-07-28T05:12:59.831Z,1000.61
2018-07-28T05:13:59.836Z,1000.66
2018-07-28T05:14:59.831Z,1000.62
2018-07-28T05:15:59.856Z,1000.49
2018-07-28T05:16:59.856Z,1000.34
2018-07-28T05:17:59.858Z,1000.29
2018-07-28T05:18:59.870Z,1000.26
2018-07-28T05:19:59.874Z,1000.30
2018-07-28T05:20:59.891Z,1000.36
2018-07-28T05:21:59.908Z,1000.46
2018-07-28T05:22:59.914Z,1000.53
2018-07-28T05:23:59.911Z,1000.55
2018-07-28T05:24:59.911Z,1000.52
2018-07-28T05:25:59.918Z,1000.52
2018-07-28T05:26:59.930Z,1000.48
2018-07-28T05:27:59.934Z,1000.45
2018-07-28T05:28:59.965Z,1000.41
2018-07-28T05:29:59.968Z,1000.37
2018-07-28T05:30:59.971Z,1000.37
2018-07-28T05:31:59.996Z,1000.40
2018-07-28T05:32:59.992Z,1000.33
2018-07-28T05:33:59.996Z,1000.33
2018-07-28T05:35:00.015Z,1000.34
2018-07-28T05:36:00.025Z,1000.34
2018-07-28T05:37:00.044Z,1000.34
2018-07-28T05:38:00.028Z,1000.37
2018-07-28T05:39:00.085Z,1000.42
2018-07-28T05:40:00.040Z,1000.40
2018-07-28T05:41:00.041Z,1000.42
2018-07-28T05:42:00.048Z,1000.41
2018-07-28T05:43:00.059Z,1000.40
2018-07-28T05:44:00.061Z,1000.39
2018-07-28T05:45:00.080Z,1000.36
2018-07-28T05:46:00.087Z,1000.41
2018-07-28T05:47:00.098Z,1000.46
2018-07-28T05:48:01.751Z,1000.37
2018-07-28T05:49:00.105Z,1000.42
2018-07-28T05:50:00.142Z,1000.44
2018-07-28T05:51:00.124Z,1000.39
2018-07-28T05:52:00.128Z,1000.39
2018-07-28T05:53:00.127Z,1000.70
2018-07-28T05:54:00.153Z,1000.75
2018-07-28T05:55:00.156Z,1000.75
2018-07-28T05:56:00.163Z,1000.72
2018-07-28T05:57:00.173Z,1000.78
2018-07-28T05:58:00.179Z,1000.81
2018-07-28T05:59:00.188Z,1000.84
2018-07-28T06:00:00.194Z,1000.82
2018-07-28T06:01:00.198Z,1000.86
2018-07-28T06:02:00.213Z,1000.83
2018-07-28T06:03:00.266Z,1000.90
2018-07-28T06:04:00.238Z,1000.89
2018-07-28T06:05:00.237Z,1000.86
2018-07-28T06:06:00.248Z,1000.86
2018-07-28T06:07:00.270Z,1000.83
2018-07-28T06:08:00.272Z,1000.84
2018-07-28T06:09:00.289Z,1000.74
2018-07-28T06:10:00.300Z,1000.74
2018-07-28T06:11:00.306Z,1000.79
2018-07-28T06:12:00.327Z,1000.84
2018-07-28T06:13:00.330Z,1000.91
2018-07-28T06:14:00.350Z,1000.94
2018-07-28T06:15:00.368Z,1001.03
2018-07-28T06:16:00.376Z,1000.99
2018-07-28T06:17:00.383Z,1001.01
2018-07-28T06:18:00.418Z,1000.96
2018-07-28T06:19:00.409Z,1000.99
2018-07-28T06:20:00.422Z,1000.99
2018-07-28T06:21:00.442Z,1001.01
2018-07-28T06:22:00.533Z,1001.01
2018-07-28T06:23:00.463Z,1001.01
2018-07-28T06:24:00.481Z,1001.01
2018-07-28T06:25:00.497Z,1000.96
2018-07-28T06:26:00.560Z,1001.00
2018-07-28T06:27:00.523Z,1001.05
2018-07-28T06:28:00.543Z,1001.11
2018-07-28T06:29:00.556Z,1001.17
2018-07-28T06:30:00.580Z,1001.16
2018-07-28T06:31:00.583Z,1001.19
2018-07-28T06:32:00.643Z,1001.16
2018-07-28T06:33:00.657Z,1001.25
2018-07-28T06:34:00.625Z,1001.27
2018-07-28T06:35:00.643Z,1001.27
2018-07-28T06:36:00.661Z,1001.24
2018-07-28T06:37:00.675Z,1001.15
2018-07-28T06:38:00.694Z,1001.17
2018-07-28T06:39:00.703Z,1001.19
2018-07-28T06:40:00.717Z,1001.15
2018-07-28T06:41:00.754Z,1001.15
2018-07-28T06:42:00.751Z,1001.09
2018-07-28T06:43:00.788Z,1001.11
2018-07-28T06:44:00.807Z,1001.16
2018-07-28T06:45:00.804Z,1001.18
2018-07-28T06:46:00.816Z,1001.20
2018-07-28T06:47:00.835Z,1001.24
2018-07-28T06:48:00.867Z,1001.21
2018-07-28T06:49:00.871Z,1001.19
2018-07-28T06:50:00.887Z,1001.11
2018-07-28T06:51:00.910Z,1001.17
2018-07-28T06:52:00.935Z,1001.16
2018-07-28T06:53:00.940Z,1001.13
2018-07-28T06:54:00.994Z,1001.14
2018-07-28T06:55:01.040Z,1001.15
2018-07-28T06:56:01.160Z,1001.16
2018-07-28T06:57:01.024Z,1001.20
2018-07-28T06:58:01.031Z,1001.22
2018-07-28T06:59:01.052Z,1001.31
2018-07-28T07:00:01.065Z,1001.28
2018-07-28T07:01:01.081Z,1001.29
2018-07-28T07:02:01.124Z,1001.27
2018-07-28T07:03:01.138Z,1001.24
2018-07-28T07:04:01.147Z,1001.27
2018-07-28T07:05:01.158Z,1001.27
2018-07-28T07:06:01.176Z,1001.24
2018-07-28T07:07:01.196Z,1001.30
2018-07-28T07:08:01.219Z,1001.29
2018-07-28T07:09:01.231Z,1001.33
2018-07-28T07:10:01.249Z,1001.34
2018-07-28T07:11:01.273Z,1001.32
2018-07-28T07:12:01.286Z,1001.40
2018-07-28T07:13:01.310Z,1001.45
2018-07-28T07:14:01.327Z,1001.55
2018-07-28T07:15:01.340Z,1001.54
2018-07-28T07:16:01.372Z,1001.41
2018-07-28T07:17:01.378Z,1001.21
2018-07-28T07:18:01.402Z,1001.01
2018-07-28T07:19:01.426Z,1000.91
2018-07-28T07:20:01.453Z,1000.85
2018-07-28T07:21:01.466Z,1000.83
2018-07-28T07:22:01.493Z,1000.90
2018-07-28T07:23:01.493Z,1001.47
2018-07-28T07:24:01.514Z,1001.15
2018-07-28T07:25:01.549Z,1000.98
2018-07-28T07:26:01.553Z,1000.98
2018-07-28T07:27:01.573Z,1001.15
2018-07-28T07:28:01.584Z,1001.32
2018-07-28T07:29:01.607Z,1001.59
2018-07-28T07:30:01.634Z,1001.57
2018-07-28T07:31:01.646Z,1001.58
2018-07-28T07:32:01.685Z,1001.54
2018-07-28T07:33:01.676Z,1001.33
2018-07-28T07:34:01.707Z,1001.42
2018-07-28T07:35:01.713Z,1002.38
2018-07-28T07:36:01.746Z,1002.46
2018-07-28T07:37:01.755Z,1002.41
2018-07-28T07:38:01.767Z,1002.30
2018-07-28T07:39:01.777Z,1001.63
2018-07-28T07:40:01.818Z,1001.55
2018-07-28T07:41:01.819Z,1001.73
2018-07-28T07:42:01.835Z,1001.73
2018-07-28T07:43:01.842Z,1002.45
2018-07-28T07:44:01.862Z,1002.38
2018-07-28T07:45:01.888Z,1001.62
2018-07-28T07:46:01.895Z,1001.81
2018-07-28T07:47:01.919Z,1001.92
2018-07-28T07:48:01.947Z,1001.87
2018-07-28T07:49:01.949Z,1002.01
2018-07-28T07:50:01.983Z,1001.79
2018-07-28T07:51:02.007Z,1001.67
2018-07-28T07:52:02.012Z,1001.82
2018-07-28T07:53:02.013Z,1001.88
2018-07-28T07:54:02.133Z,1001.79
2018-07-28T07:55:02.061Z,1001.75
2018-07-28T07:56:02.063Z,1001.80
2018-07-28T07:57:02.088Z,1001.83
2018-07-28T07:58:02.100Z,1001.83
2018-07-28T07:59:02.124Z,1001.84
2018-07-28T08:00:02.159Z,1001.91
2018-07-28T08:01:02.156Z,1001.93
2018-07-28T08:02:02.180Z,1002.00
2018-07-28T08:03:02.187Z,1001.94
2018-07-28T08:04:02.198Z,1001.95
2018-07-28T08:05:02.209Z,1001.86
2018-07-28T08:06:02.238Z,1001.79
2018-07-28T08:07:02.253Z,1001.82
2018-07-28T08:08:02.338Z,1001.84
2018-07-28T08:09:02.279Z,1001.84
2018-07-28T08:10:02.314Z,1001.82
2018-07-28T08:11:02.312Z,1001.80
2018-07-28T08:12:02.350Z,1001.79
2018-07-28T08:13:02.348Z,1001.76
2018-07-28T08:14:02.370Z,1001.76
2018-07-28T08:15:02.384Z,1001.71
2018-07-28T08:16:02.382Z,1001.72
2018-07-28T08:17:02.428Z,1001.61
2018-07-28T08:18:02.428Z,1001.62
2018-07-28T08:19:02.438Z,1001.54
2018-07-28T08:20:02.451Z,1001.52
2018-07-28T08:21:02.471Z,1001.45
2018-07-28T08:22:02.494Z,1001.46
2018-07-28T08:23:02.528Z,1001.62
2018-07-28T08:24:02.524Z,1001.63
2018-07-28T08:25:02.559Z,1001.55
2018-07-28T08:26:02.562Z,1001.59
2018-07-28T08:27:02.559Z,1001.65
2018-07-28T08:28:02.582Z,1001.60
2018-07-28T08:29:02.589Z,1001.58
2018-07-28T08:30:02.611Z,1001.56
2018-07-28T08:31:02.621Z,1001.55
2018-07-28T08:32:02.639Z,1001.54
2018-07-28T08:33:02.659Z,1001.56
2018-07-28T08:34:02.654Z,1001.52
2018-07-28T08:35:02.713Z,1001.60
2018-07-28T08:36:02.688Z,1001.54
2018-07-28T08:37:02.692Z,1001.59
2018-07-28T08:38:02.732Z,1001.57
2018-07-28T08:39:02.757Z,1001.56
2018-07-28T08:40:02.871Z,1001.59
2018-07-28T08:41:02.762Z,1001.58
2018-07-28T08:42:02.781Z,1001.56
2018-07-28T08:43:02.805Z,1001.52
2018-07-28T08:44:02.794Z,1001.55
2018-07-28T08:45:02.812Z,1001.52
2018-07-28T08:46:02.827Z,1001.50
2018-07-28T08:47:02.837Z,1001.48
2018-07-28T08:48:02.860Z,1001.52
2018-07-28T08:49:02.949Z,1001.50
2018-07-28T08:50:02.881Z,1001.48
2018-07-28T08:51:02.893Z,1001.50
2018-07-28T08:52:02.905Z,1001.54
2018-07-28T08:53:02.929Z,1001.56
2018-07-28T08:54:02.935Z,1001.53
2018-07-28T08:55:02.948Z,1001.54
2018-07-28T08:56:02.962Z,1001.59
2018-07-28T08:57:02.975Z,1001.63
2018-07-28T08:58:02.982Z,1001.63
2018-07-28T08:59:02.999Z,1001.64
2018-07-28T09:00:03.005Z,1001.68
2018-07-28T09:01:03.032Z,1001.72
2018-07-28T09:02:03.070Z,1001.70
2018-07-28T09:03:03.055Z,1001.75
2018-07-28T09:04:03.063Z,1001.73
2018-07-28T09:05:03.067Z,1001.75
2018-07-28T09:06:03.099Z,1001.73
2018-07-28T09:07:03.098Z,1001.71
2018-07-28T09:08:03.107Z,1001.70
2018-07-28T09:09:03.125Z,1001.71
2018-07-28T09:10:03.130Z,1001.67
2018-07-28T09:11:03.144Z,1001.61
2018-07-28T09:12:03.169Z,1001.54
2018-07-28T09:13:03.177Z,1001.51
2018-07-28T09:14:03.185Z,1001.50
2018-07-28T09:15:03.193Z,1001.48
2018-07-28T09:16:03.211Z,1001.47
2018-07-28T09:17:03.213Z,1001.41
2018-07-28T09:18:03.298Z,1001.43
2018-07-28T09:19:03.243Z,1001.43
2018-07-28T09:20:03.265Z,1001.42
2018-07-28T09:21:03.296Z,1001.38
2018-07-28T09:22:03.282Z,1001.46
2018-07-28T09:23:03.289Z,1001.58
2018-07-28T09:24:03.301Z,1001.63
2018-07-28T09:25:03.320Z,1001.65
2018-07-28T09:26:03.314Z,1001.68
2018-07-28T09:27:03.354Z,1001.69
2018-07-28T09:28:03.341Z,1001.72
2018-07-28T09:29:03.392Z,1001.71
2018-07-28T09:30:03.375Z,1001.72
2018-07-28T09:31:03.383Z,1001.71
2018-07-28T09:32:03.385Z,1001.70
2018-07-28T09:33:03.418Z,1001.71
2018-07-28T09:34:03.427Z,1001.76
2018-07-28T09:35:03.429Z,1001.80
2018-07-28T09:36:03.438Z,1001.83
2018-07-28T09:37:03.496Z,1001.84
2018-07-28T09:38:03.464Z,1001.80
2018-07-28T09:39:03.471Z,1001.80
2018-07-28T09:40:03.485Z,1001.75
2018-07-28T09:41:03.495Z,1001.72
2018-07-28T09:42:03.501Z,1001.74
2018-07-28T09:43:03.517Z,1001.75
2018-07-28T09:44:03.531Z,1001.76
2018-07-28T09:45:03.541Z,1001.75
2018-07-28T09:46:03.560Z,1001.74
2018-07-28T09:47:03.703Z,1001.77
2018-07-28T09:48:03.583Z,1001.83
2018-07-28T09:49:03.583Z,1001.86
2018-07-28T09:50:03.621Z,1001.92
2018-07-28T09:51:03.609Z,1001.95
2018-07-28T09:52:03.619Z,1001.98
2018-07-28T09:53:03.657Z,1002.07
2018-07-28T09:54:03.783Z,1002.17
2018-07-28T09:55:03.656Z,1002.23
2018-07-28T09:56:03.706Z,1002.31
2018-07-28T09:57:03.685Z,1002.34
2018-07-28T09:58:03.689Z,1002.37
2018-07-28T09:59:03.700Z,1002.41
2018-07-28T10:00:03.721Z,1002.41
2018-07-28T10:01:03.716Z,1002.41
2018-07-28T10:02:03.730Z,1002.44
2018-07-28T10:03:03.743Z,1002.41
2018-07-28T10:04:03.766Z,1002.42
2018-07-28T10:05:03.772Z,1002.41
2018-07-28T10:06:03.768Z,1002.41
2018-07-28T10:07:03.792Z,1002.37
2018-07-28T10:08:03.802Z,1002.39
2018-07-28T10:09:03.813Z,1002.41
2018-07-28T10:10:03.826Z,1002.45
2018-07-28T10:11:04.369Z,1002.41
2018-07-28T10:12:03.847Z,1002.39
2018-07-28T10:13:03.862Z,1002.43
2018-07-28T10:14:03.872Z,1002.49
2018-07-28T10:15:03.879Z,1002.50
2018-07-28T10:16:03.896Z,1002.53
2018-07-28T10:17:03.892Z,1002.47
2018-07-28T10:18:03.903Z,1002.46
2018-07-28T10:19:03.922Z,1002.48
2018-07-28T10:20:03.933Z,1002.50
2018-07-28T10:21:03.931Z,1002.54
2018-07-28T10:22:03.948Z,1002.58
2018-07-28T10:23:04.018Z,1002.61
2018-07-28T10:24:03.976Z,1002.63
2018-07-28T10:25:03.984Z,1002.67
2018-07-28T10:26:03.989Z,1002.72
2018-07-28T10:27:04.001Z,1002.70
2018-07-28T10:28:04.014Z,1002.67
2018-07-28T10:29:04.204Z,1002.63
2018-07-28T10:30:04.037Z,1002.64
2018-07-28T10:31:04.043Z,1002.66
2018-07-28T10:32:04.048Z,1002.61
2018-07-28T10:33:04.061Z,1002.56
2018-07-28T10:34:04.069Z,1002.56
2018-07-28T10:35:04.076Z,1002.56
2018-07-28T10:36:04.080Z,1002.60
2018-07-28T10:37:04.101Z,1002.64
2018-07-28T10:38:04.111Z,1002.66
2018-07-28T10:39:04.123Z,1002.65
2018-07-28T10:40:04.132Z,1002.66
2018-07-28T10:41:04.874Z,1002.65
2018-07-28T10:42:04.150Z,1002.65
2018-07-28T10:43:04.154Z,1002.71
2018-07-28T10:44:04.168Z,1002.73
2018-07-28T10:45:04.174Z,1002.77
2018-07-28T10:46:04.187Z,1002.81
2018-07-28T10:47:04.194Z,1002.82
2018-07-28T10:48:04.203Z,1002.82
2018-07-28T10:49:04.218Z,1002.87
2018-07-28T10:50:04.220Z,1002.85
2018-07-28T10:51:04.233Z,1002.90
2018-07-28T10:52:04.249Z,1002.87
2018-07-28T10:53:04.255Z,1002.86
2018-07-28T10:54:04.268Z,1002.82
2018-07-28T10:55:04.269Z,1002.84
2018-07-28T10:56:04.284Z,1002.82
2018-07-28T10:57:04.324Z,1002.85
2018-07-28T10:58:04.298Z,1002.88
2018-07-28T10:59:04.344Z,1002.88
2018-07-28T11:00:04.437Z,1002.91
2018-07-28T11:01:04.356Z,1002.94
2018-07-28T11:02:04.345Z,1002.97
2018-07-28T11:03:04.352Z,1002.94
2018-07-28T11:04:04.372Z,1002.92
2018-07-28T11:05:04.376Z,1002.97
2018-07-28T11:06:04.383Z,1002.93
2018-07-28T11:07:04.398Z,1002.94
2018-07-28T11:08:04.406Z,1002.94
2018-07-28T11:09:04.430Z,1002.99
2018-07-28T11:10:04.429Z,1002.98
2018-07-28T11:11:04.432Z,1002.95
2018-07-28T11:12:04.452Z,1002.96
2018-07-28T11:13:04.465Z,1002.95
2018-07-28T11:14:04.471Z,1002.91
2018-07-28T11:15:04.478Z,1002.89
2018-07-28T11:16:04.491Z,1002.85
2018-07-28T11:17:04.493Z,1002.83
2018-07-28T11:18:04.520Z,1002.87
2018-07-28T11:19:04.559Z,1002.87
2018-07-28T11:20:04.535Z,1002.89
2018-07-28T11:21:04.545Z,1002.90
2018-07-28T11:22:04.547Z,1002.86
2018-07-28T11:23:04.575Z,1002.85
2018-07-28T11:24:04.572Z,1002.85
2018-07-28T11:25:04.586Z,1002.85
2018-07-28T11:26:04.698Z,1002.87
2018-07-28T11:27:04.602Z,1002.85
2018-07-28T11:28:04.627Z,1002.89
2018-07-28T11:29:04.635Z,1002.88
2018-07-28T11:30:04.646Z,1002.87
2018-07-28T11:31:04.661Z,1002.87
2018-07-28T11:32:04.735Z,1002.92
2018-07-28T11:33:04.732Z,1002.86
2018-07-28T11:34:04.689Z,1002.84
2018-07-28T11:35:04.702Z,1002.78
2018-07-28T11:36:04.715Z,1002.72
2018-07-28T11:37:04.735Z,1002.73
2018-07-28T11:38:04.734Z,1002.73
2018-07-28T11:39:04.747Z,1002.70
2018-07-28T11:40:04.758Z,1002.70
2018-07-28T11:41:04.778Z,1002.71
2018-07-28T11:42:04.787Z,1002.74
2018-07-28T11:43:04.803Z,1002.77
2018-07-28T11:44:04.814Z,1002.73
2018-07-28T11:45:04.816Z,1002.70
2018-07-28T11:46:04.841Z,1002.67
2018-07-28T11:47:04.848Z,1002.71
2018-07-28T11:48:05.404Z,1002.73
2018-07-28T11:49:04.888Z,1002.74
2018-07-28T11:50:04.892Z,1002.73
2018-07-28T11:51:04.901Z,1002.74
2018-07-28T11:52:04.903Z,1002.77
2018-07-28T11:53:04.921Z,1002.81
2018-07-28T11:54:04.925Z,1002.85
2018-07-28T11:55:04.938Z,1002.90
2018-07-28T11:56:04.968Z,1002.81
2018-07-28T11:57:04.966Z,1002.84
2018-07-28T11:58:05.040Z,1002.83
2018-07-28T11:59:04.987Z,1002.76
2018-07-28T12:00:05.009Z,1002.77
2018-07-28T12:01:05.012Z,1002.76
2018-07-28T12:02:05.026Z,1002.77
2018-07-28T12:03:05.043Z,1002.78
2018-07-28T12:04:05.049Z,1002.82
2018-07-28T12:05:05.074Z,1002.78
2018-07-28T12:06:05.091Z,1002.75